createdAt,value
2022-08-10T00:00:36.088Z,39.93
2022-08-10T00:01:37.866Z,40.37
2022-08-10T00:02:39.508Z,40.5
2022-08-10T00:03:40.971Z,40.33
2022-08-10T00:04:42.507Z,40.27
2022-08-10T00:05:53.692Z,40.22
2022-08-10T00:06:55.922Z,40.23
2022-08-10T00:07:57.518Z,39.91
2022-08-10T00:08:59.009Z,40.07
2022-08-10T00:10:00.605Z,39.89
2022-08-10T00:11:04.028Z,39.72
2022-08-10T00:12:05.823Z,39.68
2022-08-10T00:13:07.290Z,39.46
2022-08-10T00:14:08.808Z,39.49
2022-08-10T00:15:55.543Z,39.39
2022-08-10T00:16:57.210Z,39.49
2022-08-10T00:17:58.763Z,39.82
2022-08-10T00:19:00.271Z,40.41
2022-08-10T00:20:09.120Z,40.41
2022-08-10T00:21:10.672Z,40.53
2022-08-10T00:22:17.481Z,40.46
2022-08-10T00:23:19.020Z,40.61
2022-08-10T00:24:20.487Z,40.4
2022-08-10T00:25:22.023Z,40.56
2022-08-10T00:26:23.660Z,40.63
2022-08-10T00:28:04.457Z,40.86
2022-08-10T00:29:12.222Z,40.53
2022-08-10T00:30:13.743Z,40.38
2022-08-10T00:31:15.245Z,40.71
2022-08-10T00:32:16.791Z,40.73
2022-08-10T00:33:18.250Z,40.78
2022-08-10T00:34:19.736Z,40.41
2022-08-10T00:35:21.271Z,40.38
2022-08-10T00:36:22.759Z,40.51
2022-08-10T00:37:24.322Z,41.74
2022-08-10T00:38:25.851Z,42.35
2022-08-10T00:39:27.619Z,42.08
2022-08-10T00:40:38.448Z,42.74
2022-08-10T00:41:39.935Z,44.01
2022-08-10T00:42:41.449Z,44.34
2022-08-10T00:43:42.997Z,44.55
2022-08-10T00:44:44.528Z,44.52
2022-08-10T00:46:00.695Z,44.39
2022-08-10T00:47:02.221Z,44.47
2022-08-10T00:48:03.847Z,44.37
2022-08-10T00:49:05.282Z,44.44
2022-08-10T00:50:06.848Z,44.56
2022-08-10T00:51:08.441Z,44.9
2022-08-10T00:52:10.011Z,45.13
2022-08-10T00:53:11.617Z,45.74
2022-08-10T00:54:25.502Z,46.07
2022-08-10T00:55:27.106Z,46.06
2022-08-10T00:57:18.865Z,45.45
2022-08-10T00:58:20.354Z,45.03
2022-08-10T00:59:21.890Z,45.1
2022-08-10T01:00:23.444Z,44.96
2022-08-10T01:02:12.138Z,44.61
2022-08-10T01:03:13.679Z,44.56
2022-08-10T01:05:02.952Z,44.21
2022-08-10T01:06:04.546Z,43.9
2022-08-10T01:07:06.114Z,43.74
2022-08-10T01:08:07.700Z,43.62
2022-08-10T01:09:09.238Z,43.33
2022-08-10T01:10:10.709Z,43.6
2022-08-10T01:12:42.215Z,43.19
2022-08-10T01:13:43.820Z,42.73
2022-08-10T01:14:45.302Z,42.01
2022-08-10T01:15:46.746Z,42.31
2022-08-10T01:16:48.186Z,42.35
2022-08-10T01:17:51.901Z,43.28
2022-08-10T01:18:53.496Z,43.51
2022-08-10T01:19:54.904Z,42.49
2022-08-10T01:20:56.408Z,43.34
2022-08-10T01:21:57.947Z,43.68
2022-08-10T01:22:59.350Z,43.69
2022-08-10T01:24:00.823Z,43.45
2022-08-10T01:25:02.315Z,43.7
2022-08-10T01:26:31.968Z,43.42
2022-08-10T01:27:33.536Z,43.44
2022-08-10T01:28:35.042Z,43.53
2022-08-10T01:29:36.506Z,43.49
2022-08-10T01:30:37.989Z,43.72
2022-08-10T01:31:39.412Z,43.58
2022-08-10T01:32:40.998Z,43.67
2022-08-10T01:34:02.970Z,43.68
2022-08-10T01:35:04.471Z,43.54
2022-08-10T01:36:05.927Z,43.48
2022-08-10T01:37:07.529Z,43.64
2022-08-10T01:38:08.992Z,44
2022-08-10T01:39:10.714Z,44.35
2022-08-10T01:40:16.945Z,44.55
2022-08-10T01:41:18.447Z,44.78
2022-08-10T01:42:19.984Z,45.09
2022-08-10T01:43:21.606Z,44.92
2022-08-10T01:44:23.109Z,45.54
2022-08-10T01:45:24.763Z,45.82
2022-08-10T01:46:26.244Z,45.91
2022-08-10T01:47:28.819Z,46.01
2022-08-10T01:48:30.398Z,45.89
2022-08-10T01:49:31.927Z,46.61
2022-08-10T01:50:33.453Z,46.75
2022-08-10T01:51:34.929Z,46.91
2022-08-10T01:52:37.213Z,47.19
2022-08-10T01:53:42.029Z,46.93
2022-08-10T01:54:43.527Z,46.67
2022-08-10T01:55:45.059Z,46.86
2022-08-10T01:56:46.632Z,47.15
2022-08-10T01:57:48.174Z,46.72
2022-08-10T01:58:49.638Z,46.88
2022-08-10T02:00:03.718Z,47.08
2022-08-10T02:01:05.352Z,47.37
2022-08-10T02:02:06.925Z,47.12
2022-08-10T02:03:08.673Z,47.14
2022-08-10T02:04:10.192Z,47.36
2022-08-10T02:05:11.718Z,47.54
2022-08-10T02:06:13.242Z,47.32
2022-08-10T02:07:14.748Z,47.74
2022-08-10T02:08:16.390Z,47.76
2022-08-10T02:09:18.056Z,47.29
2022-08-10T02:10:19.704Z,46.88
2022-08-10T02:11:21.276Z,46.84
2022-08-10T02:12:22.760Z,46.78
2022-08-10T02:13:24.267Z,46.89
2022-08-10T02:14:35.006Z,46.76
2022-08-10T02:15:37.621Z,47.08
2022-08-10T02:17:02.969Z,46.58
2022-08-10T02:18:04.432Z,46.51
2022-08-10T02:19:05.981Z,46.3
2022-08-10T02:20:09.457Z,46.58
2022-08-10T02:21:11.022Z,46.8
2022-08-10T02:22:46.507Z,46.42
2022-08-10T02:24:00.861Z,46.63
2022-08-10T02:25:02.473Z,46.46
2022-08-10T02:26:03.932Z,46.55
2022-08-10T02:27:05.477Z,46.47
2022-08-10T02:28:07.029Z,45.94
2022-08-10T02:29:08.602Z,46.33
2022-08-10T02:30:10.241Z,46.55
2022-08-10T02:31:12.579Z,46.73
2022-08-10T02:32:38.785Z,46.62
2022-08-10T02:33:59.725Z,46.59
2022-08-10T02:35:03.280Z,46.24
2022-08-10T02:36:04.877Z,46
2022-08-10T02:37:13.747Z,46.25
2022-08-10T02:38:15.218Z,46.61
2022-08-10T02:39:17.012Z,46.54
2022-08-10T02:45:32.130Z,46.75
2022-08-10T02:46:33.743Z,46.65
2022-08-10T02:47:52.921Z,46.62
2022-08-10T02:48:54.448Z,46.72
2022-08-10T02:49:56.463Z,47.18
2022-08-10T02:50:57.982Z,47.13
2022-08-10T02:52:09.282Z,47.56
2022-08-10T02:53:57.649Z,47.91
2022-08-10T02:55:18.701Z,47.65
2022-08-10T02:56:22.868Z,47.61
2022-08-10T02:57:24.464Z,47.52
2022-08-10T02:58:26.086Z,47.19
2022-08-10T02:59:40.630Z,47.32
2022-08-10T03:00:42.531Z,47.49
2022-08-10T03:01:44.084Z,47.44
2022-08-10T03:02:45.561Z,47.72
2022-08-10T03:03:47.036Z,47.53
2022-08-10T03:04:58.739Z,47.41
2022-08-10T03:06:00.214Z,47.74
2022-08-10T03:07:01.768Z,47.61
2022-08-10T03:08:03.261Z,47.97
2022-08-10T03:09:04.764Z,48.14
2022-08-10T03:10:15.166Z,48.34
2022-08-10T03:12:38.959Z,48.44
2022-08-10T03:13:40.459Z,48.21
2022-08-10T03:14:41.877Z,48.9
2022-08-10T03:15:43.343Z,49.15
2022-08-10T03:16:44.835Z,49.26
2022-08-10T03:17:59.343Z,49.61
2022-08-10T03:19:00.836Z,49.71
2022-08-10T03:20:40.393Z,49.58
2022-08-10T03:21:42.039Z,49.51
2022-08-10T03:22:43.541Z,49.38
2022-08-10T03:23:45.025Z,49.35
2022-08-10T03:24:46.531Z,49.33
2022-08-10T03:25:55.152Z,49.25
2022-08-10T03:26:56.593Z,49.52
2022-08-10T03:27:58.114Z,49.19
2022-08-10T03:28:59.701Z,49
2022-08-10T03:30:34.734Z,49.15
2022-08-10T03:31:40.566Z,49.44
2022-08-10T03:32:42.088Z,49.22
2022-08-10T03:33:43.672Z,49.17
2022-08-10T03:34:45.175Z,49.12
2022-08-10T03:36:45.445Z,49.48
2022-08-10T03:37:47.010Z,49.46
2022-08-10T03:38:48.498Z,49.64
2022-08-10T03:39:50.195Z,49.73
2022-08-10T03:40:51.757Z,49.44
2022-08-10T03:41:55.895Z,49.2
2022-08-10T03:42:57.402Z,49.61
2022-08-10T03:43:58.945Z,49.31
2022-08-10T03:45:00.550Z,49.49
2022-08-10T03:46:02.112Z,49.3
2022-08-10T03:47:16.710Z,49.46
2022-08-10T03:48:18.196Z,49.52
2022-08-10T03:49:19.714Z,49.78
2022-08-10T03:50:52.943Z,49.43
2022-08-10T03:51:56.798Z,49.52
2022-08-10T03:52:58.479Z,49.33
2022-08-10T03:54:07.806Z,49.35
2022-08-10T03:55:09.309Z,49.79
2022-08-10T03:56:33.201Z,49.96
2022-08-10T03:57:34.813Z,50.11
2022-08-10T03:58:43.334Z,50.34
2022-08-10T03:59:44.879Z,50.47
2022-08-10T04:00:46.609Z,50.5
2022-08-10T04:02:53.317Z,50.65
2022-08-10T04:04:23.967Z,50.28
2022-08-10T04:05:39.358Z,49.91
2022-08-10T04:06:40.823Z,49.68
2022-08-10T04:07:42.451Z,50.36
2022-08-10T04:08:43.902Z,49.05
2022-08-10T04:09:59.078Z,49.84
2022-08-10T04:11:00.562Z,49.89
2022-08-10T04:12:02.064Z,49.58
2022-08-10T04:13:03.517Z,50.6
2022-08-10T04:14:05.051Z,50.75
2022-08-10T04:15:06.545Z,50.9
2022-08-10T04:16:08.237Z,51.02
2022-08-10T04:17:14.489Z,50.53
2022-08-10T04:18:16.009Z,50.32
2022-08-10T04:19:17.683Z,49.9
2022-08-10T04:20:19.325Z,49.57
2022-08-10T04:21:20.825Z,49.72
2022-08-10T04:22:22.418Z,50.19
2022-08-10T04:23:23.886Z,50.28
2022-08-10T04:24:33.383Z,50.58
2022-08-10T04:25:34.916Z,50.34
2022-08-10T04:26:36.489Z,50.57
2022-08-10T04:27:37.961Z,49.96
2022-08-10T04:28:39.486Z,49.99
2022-08-10T04:29:40.926Z,49.31
2022-08-10T04:30:42.452Z,49.37
2022-08-10T04:31:43.999Z,49.22
2022-08-10T04:32:45.635Z,49.52
2022-08-10T04:33:47.098Z,49.31
2022-08-10T04:34:48.626Z,49.46
2022-08-10T04:35:50.080Z,49.83
2022-08-10T04:36:51.606Z,49.89
2022-08-10T04:37:53.150Z,50.12
2022-08-10T04:38:54.636Z,50.16
2022-08-10T04:39:56.196Z,51.02
2022-08-10T04:40:57.704Z,50.54
2022-08-10T04:41:59.220Z,51.16
2022-08-10T04:43:13.412Z,51.67
2022-08-10T04:44:15.055Z,51.15
2022-08-10T04:45:16.654Z,51.36
2022-08-10T04:46:59.650Z,51.33
2022-08-10T04:48:03.966Z,50.94
2022-08-10T04:49:57.009Z,51.57
2022-08-10T04:51:00.949Z,51.58
2022-08-10T04:52:02.464Z,51.58
2022-08-10T04:53:03.988Z,50.31
2022-08-10T04:54:11.984Z,50.76
2022-08-10T04:55:14.656Z,51.27
2022-08-10T04:56:16.252Z,51.38
2022-08-10T04:57:17.729Z,51.61
2022-08-10T04:58:19.223Z,51.57
2022-08-10T04:59:20.713Z,52.46
2022-08-10T05:00:22.169Z,52.14
2022-08-10T05:01:25.636Z,52.48
2022-08-10T05:02:32.650Z,52.64
2022-08-10T05:04:39.559Z,53.13
2022-08-10T05:05:41.151Z,52.39
2022-08-10T05:06:42.648Z,52.46
2022-08-10T05:07:57.377Z,52.39
2022-08-10T05:08:58.929Z,52.44
2022-08-10T05:10:10.433Z,51.72
2022-08-10T05:11:24.575Z,51.91
2022-08-10T05:12:26.275Z,51.81
2022-08-10T05:13:27.889Z,51.14
2022-08-10T05:14:29.419Z,51.6
2022-08-10T05:15:30.920Z,52.04
2022-08-10T05:16:33.164Z,51.24
2022-08-10T05:17:34.724Z,49.85
2022-08-10T05:18:36.413Z,50.13
2022-08-10T05:20:07.560Z,49.03
2022-08-10T05:21:09.579Z,48.84
2022-08-10T05:22:11.127Z,47.97
2022-08-10T05:23:12.622Z,47.44
2022-08-10T05:24:14.154Z,48.17
2022-08-10T05:25:15.783Z,48.14
2022-08-10T06:20:03.690Z,44.27
2022-08-10T06:21:06.002Z,44.05
2022-08-10T06:22:07.574Z,43.15
2022-08-10T06:23:09.489Z,42.36
2022-08-10T06:24:10.969Z,40.8
2022-08-10T06:26:19.704Z,40.98
2022-08-10T06:27:35.377Z,40.37
2022-08-10T06:28:36.898Z,40.08
2022-08-10T06:29:38.706Z,38.82
2022-08-10T06:30:40.338Z,38.65
2022-08-10T06:31:50.391Z,38.82
2022-08-10T06:32:52.152Z,37.85
2022-08-10T06:33:53.714Z,38.35
2022-08-10T06:34:55.385Z,37.65
2022-08-10T06:35:57.336Z,37.8
2022-08-10T06:36:59.262Z,37
2022-08-10T06:38:00.986Z,36.77
2022-08-10T06:39:37.420Z,36.39
2022-08-10T06:40:39.061Z,37.37
2022-08-10T06:42:18.786Z,36.74
2022-08-10T06:43:20.278Z,36.89
2022-08-10T06:44:21.873Z,35.6
2022-08-10T06:45:23.527Z,35.27
2022-08-10T06:46:24.930Z,34.71
2022-08-10T06:47:26.749Z,34.9
2022-08-10T06:48:28.264Z,33.97
2022-08-10T06:49:29.746Z,34.59
2022-08-10T07:28:52.368Z,30.34
2022-08-10T07:29:55.676Z,30.69
2022-08-10T07:30:57.423Z,29.62
2022-08-10T07:31:58.976Z,29.03
2022-08-10T07:33:00.729Z,29.04
2022-08-10T07:34:02.376Z,28.92
2022-08-10T07:35:04.084Z,29.85
2022-08-10T07:36:05.731Z,30.44
2022-08-10T07:37:07.210Z,30.54
2022-08-10T07:38:08.822Z,30.32
2022-08-10T07:39:10.825Z,30.41
2022-08-10T07:40:12.903Z,29.58
2022-08-10T07:41:19.093Z,29.22
2022-08-10T07:42:20.645Z,28.79
2022-08-10T07:43:22.201Z,28.77
2022-08-10T07:44:23.665Z,29.31
2022-08-10T07:45:25.479Z,30.58
2022-08-10T07:46:26.974Z,30.22
2022-08-10T07:47:55.339Z,30.46
2022-08-10T07:48:57.111Z,29.35
2022-08-10T07:49:58.588Z,29.3
2022-08-10T07:51:00.079Z,30.48
2022-08-10T07:52:01.709Z,29.84
2022-08-10T07:53:04.993Z,29.4
2022-08-10T07:54:06.549Z,29.01
2022-08-10T07:55:08.044Z,28.98
2022-08-10T07:56:49.330Z,29.67
2022-08-10T07:57:51.058Z,29.83
2022-08-10T08:08:08.725Z,30.26
2022-08-10T08:09:10.488Z,29.81
2022-08-10T08:10:12.141Z,29.98
2022-08-10T08:11:26.944Z,29.18
2022-08-10T08:12:33.554Z,29.02
2022-08-10T08:13:38.579Z,29.09
2022-08-10T08:14:40.199Z,29.44
2022-08-10T08:16:22.451Z,28.79
2022-08-10T08:17:36.774Z,28.62
2022-08-10T08:19:25.795Z,28.62
2022-08-10T08:20:30.262Z,27.73
2022-08-10T08:29:47.234Z,27.21
2022-08-10T08:30:49.591Z,26.81
2022-08-10T08:32:04.354Z,26.31
2022-08-10T08:33:06.061Z,26.37
2022-08-10T08:34:07.570Z,25.88
2022-08-10T08:35:09.275Z,26.42
2022-08-10T08:36:10.755Z,26.65
2022-08-10T08:38:29.403Z,26.07
2022-08-10T08:39:36.466Z,25.09
2022-08-10T08:40:38.489Z,24.9
2022-08-10T08:41:40.051Z,25.9
2022-08-10T08:42:41.584Z,25.66
2022-08-10T08:43:43.087Z,26.12
2022-08-10T08:44:44.593Z,26.46
2022-08-10T08:46:02.844Z,26.04
2022-08-10T08:48:06.387Z,25.46
2022-08-10T08:49:07.995Z,25.09
2022-08-10T08:50:11.053Z,25.42
2022-08-10T08:51:12.555Z,25.85
2022-08-10T08:52:19.231Z,25.34
2022-08-10T08:53:23.151Z,25.36
2022-08-10T08:54:24.614Z,25.81
2022-08-10T08:56:07.567Z,25.38
2022-08-10T08:57:09.005Z,25.19
2022-08-10T08:58:10.469Z,25.32
2022-08-10T08:59:11.970Z,25.83
2022-08-10T09:00:14.023Z,24.96
2022-08-10T09:01:17.129Z,25.02
2022-08-10T09:02:19.058Z,24.04
2022-08-10T09:03:29.207Z,24.04
2022-08-10T09:04:31.679Z,23.74
2022-08-10T09:06:01.654Z,23.4
2022-08-10T09:07:03.260Z,23.04
2022-08-10T09:08:04.861Z,22.7
2022-08-10T09:09:06.366Z,22.67
2022-08-10T09:10:07.878Z,22.57
2022-08-10T09:11:09.362Z,23.13
2022-08-10T09:12:10.879Z,23.2
2022-08-10T09:13:12.439Z,22.7
2022-08-10T09:14:13.863Z,22.33
2022-08-10T09:15:42.056Z,22.58
2022-08-10T09:16:43.592Z,22.11
2022-08-10T09:17:45.071Z,22.68
2022-08-10T09:18:46.521Z,22.79
2022-08-10T09:19:48.022Z,22.8
2022-08-10T10:11:38.791Z,23.13
2022-08-10T10:12:40.399Z,22.69
2022-08-10T10:14:12.263Z,22.94
2022-08-10T10:15:26.537Z,23.01
2022-08-10T10:16:27.999Z,22.32
2022-08-10T10:17:29.489Z,22.65
2022-08-10T10:18:31.025Z,23.19
2022-08-10T10:19:40.003Z,22.89
2022-08-10T10:20:42.105Z,22.27
2022-08-10T10:21:57.141Z,22.86
2022-08-10T10:22:58.653Z,22.8
2022-08-10T10:24:23.295Z,22.35
2022-08-10T10:25:55.456Z,21.68
2022-08-10T10:27:02.536Z,21.69
2022-08-10T10:28:05.169Z,21.26
2022-08-10T10:29:59.424Z,21.53
2022-08-10T10:31:01.019Z,21.67
2022-08-10T10:32:03.325Z,22.94
2022-08-10T10:33:04.863Z,23.51
2022-08-10T10:34:06.445Z,22.52
2022-08-10T10:35:08.144Z,22.41
2022-08-10T10:36:10.945Z,22.08
2022-08-10T10:37:13.427Z,22.35
2022-08-10T10:38:15.276Z,21.62
2022-08-10T10:39:24.620Z,22.04
2022-08-10T10:40:26.227Z,21.71
2022-08-10T10:41:27.818Z,21.99
2022-08-10T10:42:46.179Z,21.86
2022-08-10T10:43:47.983Z,21.92
2022-08-10T10:44:49.599Z,21.92
2022-08-10T10:45:51.530Z,21.34
2022-08-10T10:46:53.083Z,21.04
2022-08-10T10:47:54.673Z,21.03
2022-08-10T10:48:56.211Z,20.41
2022-08-10T10:49:57.742Z,20.42
2022-08-10T10:50:59.337Z,20.42
2022-08-10T10:52:02.729Z,20.32
2022-08-10T10:53:04.297Z,20.91
2022-08-10T10:54:05.820Z,20.48
2022-08-10T10:55:07.317Z,20.31
2022-08-10T10:56:16.742Z,21.23
2022-08-10T10:57:18.290Z,21.25
2022-08-10T10:58:28.531Z,21.43
2022-08-10T10:59:58.044Z,21.09
2022-08-10T11:00:59.819Z,20.83
2022-08-10T11:02:01.396Z,20.81
2022-08-10T11:03:02.922Z,20.6
2022-08-10T11:04:04.562Z,20.66
2022-08-10T11:05:06.046Z,20.23
2022-08-10T11:06:10.124Z,20.85
2022-08-10T11:07:16.362Z,20.23
2022-08-10T11:08:30.000Z,20.31
2022-08-10T11:10:36.631Z,19.21
2022-08-10T11:12:05.101Z,19.57
2022-08-10T11:14:29.983Z,19.62
2022-08-10T11:15:31.489Z,18.93
2022-08-10T11:16:33.738Z,19.07
2022-08-10T11:17:36.084Z,20.48
2022-08-10T11:18:37.608Z,19.35
2022-08-10T11:20:04.660Z,19.16
2022-08-10T11:21:06.300Z,19.04
2022-08-10T11:22:07.868Z,18.93
2022-08-10T11:23:09.536Z,18.47
2022-08-10T11:24:50.729Z,18.77
2022-08-10T11:25:52.353Z,18.56
2022-08-10T11:26:56.442Z,19.02
2022-08-10T11:27:58.090Z,19.29
2022-08-10T11:28:59.555Z,18.79
2022-08-10T11:30:01.175Z,18.82
2022-08-10T11:31:02.639Z,18.76
2022-08-10T11:32:04.098Z,18.47
2022-08-10T11:33:05.630Z,18.47
2022-08-10T11:35:12.589Z,19.26
2022-08-10T11:36:14.413Z,18.91
2022-08-10T11:37:15.921Z,18.96
2022-08-10T11:39:12.828Z,20.38
2022-08-10T11:40:15.185Z,20.36
2022-08-10T11:42:35.095Z,19.62
2022-08-10T11:43:37.335Z,20.07
2022-08-10T11:44:38.810Z,19.54
2022-08-10T11:45:55.712Z,21.28
2022-08-10T11:46:57.270Z,21.02
2022-08-10T11:47:58.968Z,20.6
2022-08-10T11:49:04.427Z,20.36
2022-08-10T11:50:05.897Z,19.73
2022-08-10T11:51:07.326Z,19.93
2022-08-10T11:52:08.902Z,19.32
2022-08-10T11:53:10.455Z,19.55
2022-08-10T11:54:11.982Z,19.56
2022-08-10T11:55:16.617Z,18.86
2022-08-10T11:56:18.140Z,18.72
2022-08-10T11:57:23.915Z,18.64
2022-08-10T11:58:54.964Z,18.57
2022-08-10T11:59:59.796Z,18.49
2022-08-10T12:01:01.312Z,18.97
2022-08-10T12:02:03.090Z,19.33
2022-08-10T12:03:05.134Z,19.26
2022-08-10T12:04:12.529Z,18.89
2022-08-10T12:05:14.157Z,19.17
2022-08-10T12:06:21.525Z,18.86
2022-08-10T12:10:14.272Z,18.87
2022-08-10T12:11:25.765Z,18.41
2022-08-10T12:12:27.634Z,18.83
2022-08-10T12:13:29.269Z,19.01
2022-08-10T12:14:30.954Z,19.13
2022-08-10T12:15:32.513Z,18.72
2022-08-10T12:16:34.034Z,18.38
2022-08-10T12:17:35.481Z,18.89
2022-08-10T12:18:36.978Z,19.35
2022-08-10T12:20:04.255Z,18.68
2022-08-10T12:21:05.776Z,18.87
2022-08-10T12:22:07.459Z,19.13
2022-08-10T12:23:09.028Z,18.03
2022-08-10T12:24:10.544Z,17.8
2022-08-10T12:25:58.828Z,17.78
2022-08-10T12:27:00.365Z,17.87
2022-08-10T12:28:01.963Z,17.8
2022-08-10T12:29:03.489Z,18.08
2022-08-10T12:30:05.000Z,18
2022-08-10T12:31:06.516Z,18.29
2022-08-10T12:32:08.208Z,20.02
2022-08-10T12:33:09.737Z,19.87
2022-08-10T12:34:11.372Z,20.16
2022-08-10T12:35:26.758Z,19.39
2022-08-10T12:36:28.313Z,19.14
2022-08-10T12:37:29.987Z,19.45
2022-08-10T12:38:31.465Z,18.9
2022-08-10T12:39:33.342Z,18.23
2022-08-10T12:40:37.761Z,18.84
2022-08-10T12:41:45.937Z,17.65
2022-08-10T12:44:09.147Z,17.66
2022-08-10T12:45:10.767Z,18.07
2022-08-10T12:46:12.322Z,18.13
2022-08-10T12:47:14.974Z,19.24
2022-08-10T12:48:16.498Z,18.53
2022-08-10T12:49:18.000Z,18.31
2022-08-10T12:50:34.494Z,18.37
2022-08-10T12:51:36.009Z,18.03
2022-08-10T12:52:38.239Z,18.35
2022-08-10T12:53:39.948Z,17.12
2022-08-10T12:54:41.542Z,17.69
2022-08-10T12:55:43.108Z,17.29
2022-08-10T12:56:44.610Z,16.86
2022-08-10T12:57:46.143Z,17.26
2022-08-10T12:59:02.030Z,17.49
2022-08-10T13:00:03.914Z,17.74
2022-08-10T13:01:18.668Z,17.6
2022-08-10T13:02:20.526Z,17.85
2022-08-10T13:04:24.950Z,18.09
2022-08-10T13:05:26.559Z,17.3
2022-08-10T13:06:28.263Z,17.47
2022-08-10T13:08:28.492Z,17.14
2022-08-10T13:09:30.413Z,16.78
2022-08-10T13:10:31.850Z,16.85
2022-08-10T13:12:45.701Z,16.93
2022-08-10T13:13:49.674Z,16.67
2022-08-10T13:14:53.223Z,17.03
2022-08-10T13:15:54.765Z,16.11
2022-08-10T13:16:56.308Z,16.15
2022-08-10T13:17:58.302Z,16.57
2022-08-10T13:19:00.018Z,16.74
2022-08-10T13:20:14.285Z,17.34
2022-08-10T13:21:21.623Z,17.54
2022-08-10T13:22:23.163Z,17.69
2022-08-10T13:23:24.689Z,16.31
2022-08-10T13:24:26.270Z,16.64
2022-08-10T13:25:27.769Z,16.32
2022-08-10T13:26:30.138Z,16.46
2022-08-10T13:28:39.728Z,16.15
2022-08-10T13:29:41.790Z,16.49
2022-08-10T13:30:51.308Z,15.38
2022-08-10T13:32:11.486Z,15.44
2022-08-10T13:33:13.063Z,15.41
2022-08-10T13:34:45.764Z,16.52
2022-08-10T13:35:47.330Z,16.07
2022-08-10T13:36:49.144Z,15.74
2022-08-10T13:37:50.893Z,15.56
2022-08-10T13:38:52.444Z,15.52
2022-08-10T13:40:01.382Z,15.16
2022-08-10T13:41:02.976Z,14.86
2022-08-10T13:42:04.573Z,15.21
2022-08-10T13:43:06.168Z,14.84
2022-08-10T13:44:07.665Z,15.59
2022-08-10T13:45:09.211Z,14.5
2022-08-10T13:46:23.257Z,14.19
2022-08-10T13:47:24.700Z,13.67
2022-08-10T13:48:26.177Z,13.55
2022-08-10T13:49:27.870Z,12.89
2022-08-10T13:50:38.109Z,12.46
2022-08-10T13:51:58.807Z,12.6
2022-08-10T13:53:02.008Z,12.68
2022-08-10T13:54:03.540Z,12.48
2022-08-10T13:55:04.998Z,11.72
2022-08-10T13:56:06.476Z,12.67
2022-08-10T13:57:07.964Z,13.59
2022-08-10T13:58:09.568Z,13.34
2022-08-10T13:59:16.540Z,12.41
2022-08-10T14:00:38.871Z,12.55
2022-08-10T14:01:40.551Z,13.07
2022-08-10T14:02:42.178Z,12.62
2022-08-10T14:03:43.846Z,11.81
2022-08-10T14:04:45.454Z,12.31
2022-08-10T14:05:46.975Z,11.93
2022-08-10T14:06:48.502Z,10.72
2022-08-10T14:08:01.725Z,10.63
2022-08-10T14:09:03.333Z,10.52
2022-08-10T14:10:05.260Z,10.3
2022-08-10T14:11:12.762Z,10.11
2022-08-10T14:12:14.208Z,9.53
2022-08-10T14:13:15.675Z,10.35
2022-08-10T14:14:17.194Z,10.47
2022-08-10T14:15:19.022Z,10.21
2022-08-10T14:16:20.513Z,10.13
2022-08-10T14:17:21.945Z,10.64
2022-08-10T14:18:23.470Z,9.91
2022-08-10T14:19:25.611Z,10.12
2022-08-10T14:20:29.074Z,10.48
2022-08-10T14:21:30.611Z,10.76
2022-08-10T14:22:35.031Z,11.19
2022-08-10T14:23:36.690Z,12
2022-08-10T14:24:38.276Z,12.92
2022-08-10T14:25:39.842Z,14.04
2022-08-10T14:26:41.451Z,13.56
2022-08-10T14:28:04.476Z,13.39
2022-08-10T14:29:06.044Z,13.47
2022-08-10T14:30:07.541Z,13.28
2022-08-10T14:31:09.167Z,12.88
2022-08-10T14:32:10.660Z,12.55
2022-08-10T14:33:12.209Z,13.04
2022-08-10T14:34:13.727Z,12.39
2022-08-10T14:36:25.015Z,11.63
2022-08-10T14:37:27.110Z,11.83
2022-08-10T14:38:28.728Z,11.51
2022-08-10T14:39:30.519Z,11.28
2022-08-10T14:40:32.089Z,10.29
2022-08-10T14:42:27.118Z,9.63
2022-08-10T14:43:29.658Z,10.33
2022-08-10T14:44:31.366Z,10.12
2022-08-10T14:45:32.912Z,10.1
2022-08-10T14:46:34.396Z,10.84
2022-08-10T14:48:01.664Z,10.21
2022-08-10T14:49:27.514Z,9.89
2022-08-10T14:50:33.929Z,10.55
2022-08-10T14:51:45.085Z,10.05
2022-08-10T14:52:46.585Z,9.38
2022-08-10T14:53:48.159Z,9.79
2022-08-10T14:54:50.876Z,9.96
2022-08-10T14:56:01.970Z,9.87
2022-08-10T14:57:16.150Z,9.93
2022-08-10T14:58:21.520Z,9.47
2022-08-10T15:00:32.910Z,10.12
2022-08-10T15:02:58.446Z,10.35
2022-08-10T15:04:04.055Z,10.18
2022-08-10T15:05:09.682Z,9.52
2022-08-10T15:06:18.775Z,9.82
2022-08-10T15:07:21.176Z,10.38
2022-08-10T15:08:22.793Z,10.71
2022-08-10T15:09:24.398Z,10.4
2022-08-10T15:10:29.005Z,10.11
2022-08-10T15:12:27.611Z,9.62
2022-08-10T15:13:35.567Z,9.9
2022-08-10T15:14:46.113Z,10.2
2022-08-10T15:16:14.075Z,9.34
2022-08-10T15:17:15.552Z,9.57
2022-08-10T15:18:17.089Z,9.46
2022-08-10T15:20:15.049Z,10.34
2022-08-10T15:21:21.588Z,10.15
2022-08-10T15:22:51.435Z,10.26
2022-08-10T15:24:10.391Z,10.9
2022-08-10T15:25:25.810Z,10.76
2022-08-10T15:26:28.229Z,10.73
2022-08-10T15:27:29.868Z,10.6
2022-08-10T15:29:26.176Z,10.32
2022-08-10T15:30:32.089Z,10.08
2022-08-10T15:31:34.058Z,9.85
2022-08-10T15:32:35.609Z,10.23
2022-08-10T15:34:05.076Z,10.2
2022-08-10T15:35:06.799Z,10.06
2022-08-10T15:36:08.328Z,9
2022-08-10T15:37:41.831Z,9.8
2022-08-10T15:38:45.615Z,9.67
2022-08-10T15:40:34.603Z,9.54
2022-08-10T15:42:00.765Z,9.7
2022-08-10T15:43:24.799Z,10.21
2022-08-10T15:44:27.890Z,9.99
2022-08-10T15:45:29.491Z,10.11
2022-08-10T15:46:30.995Z,10.25
2022-08-10T15:47:47.160Z,10.9
2022-08-10T15:48:48.867Z,10.38
2022-08-10T15:49:52.252Z,10.09
2022-08-10T15:50:53.966Z,9.95
2022-08-10T15:51:55.494Z,8.95
2022-08-10T15:53:03.616Z,8.88
2022-08-10T15:54:05.130Z,9.53
2022-08-10T15:55:46.108Z,10.1
2022-08-10T15:56:47.659Z,9.45
2022-08-10T15:57:49.134Z,9.3
2022-08-10T15:58:50.664Z,9.19
2022-08-10T15:59:55.678Z,9.67
2022-08-10T16:01:00.186Z,9.6
2022-08-10T16:02:18.372Z,9.51
2022-08-10T16:03:20.187Z,10.6
2022-08-10T16:04:36.741Z,9.53
2022-08-10T16:06:06.172Z,9.94
2022-08-10T16:07:07.974Z,10.7
2022-08-10T16:08:10.260Z,10.43
2022-08-10T16:10:30.412Z,9.98
2022-08-10T16:11:39.257Z,10.15
2022-08-10T16:12:40.717Z,9.73
2022-08-10T16:14:02.726Z,10.19
2022-08-10T16:15:09.481Z,10.2
2022-08-10T16:16:11.448Z,10.47
2022-08-10T16:17:13.989Z,10.38
2022-08-10T16:18:15.525Z,10.44
2022-08-10T16:19:26.049Z,10.39
2022-08-10T16:20:27.536Z,10.42
2022-08-10T16:21:29.109Z,10.12
2022-08-10T16:22:38.860Z,10.06
2022-08-10T16:23:41.398Z,9.81
2022-08-10T16:24:42.924Z,9.95
2022-08-10T16:26:03.152Z,9.75
2022-08-10T16:27:06.125Z,10.48
2022-08-10T16:28:07.623Z,10.56
2022-08-10T16:29:09.153Z,10.23
2022-08-10T16:30:10.603Z,9.7
2022-08-10T16:31:12.139Z,9.71
2022-08-10T16:32:13.964Z,9.23
2022-08-10T16:33:16.976Z,9.15
2022-08-10T16:34:18.417Z,9.18
2022-08-10T16:35:19.946Z,10.01
2022-08-10T16:36:21.453Z,10.19
2022-08-10T16:37:23.009Z,10.74
2022-08-10T16:38:24.796Z,10.19
2022-08-10T16:40:08.973Z,10.63
2022-08-10T16:42:06.779Z,9.75
2022-08-10T16:43:08.283Z,9.71
2022-08-10T16:44:09.801Z,9.32
2022-08-10T16:45:11.404Z,10.77
2022-08-10T16:46:12.892Z,10.46
2022-08-10T16:47:14.396Z,9.94
2022-08-10T16:48:52.274Z,10.95
2022-08-10T16:49:53.776Z,10.7
2022-08-10T16:50:55.252Z,10.03
2022-08-10T16:51:56.783Z,9.66
2022-08-10T16:52:58.211Z,11.25
2022-08-10T16:53:59.810Z,10.87
2022-08-10T16:55:57.099Z,10.86
2022-08-10T16:56:58.565Z,11.13
2022-08-10T16:58:00.165Z,11.33
2022-08-10T16:59:01.953Z,11.34
2022-08-10T17:00:04.555Z,11.56
2022-08-10T17:01:11.857Z,10.93
2022-08-10T17:02:14.897Z,11.45
2022-08-10T17:04:18.107Z,11.05
2022-08-10T17:06:13.587Z,11.09
2022-08-10T17:07:15.242Z,11.26
2022-08-10T17:08:16.691Z,11.05
2022-08-10T17:09:18.207Z,11.75
2022-08-10T17:10:19.836Z,11.86
2022-08-10T17:11:21.489Z,11.39
2022-08-10T17:12:23.045Z,12.06
2022-08-10T17:13:24.727Z,12.43
2022-08-10T17:14:26.220Z,11.69
2022-08-10T17:15:27.675Z,11.88
2022-08-10T17:16:29.210Z,11.85
2022-08-10T17:17:39.872Z,11.87
2022-08-10T17:18:41.616Z,11.96
2022-08-10T17:19:50.794Z,12.58
2022-08-10T17:20:52.338Z,12
2022-08-10T17:21:53.862Z,12.29
2022-08-10T17:22:58.639Z,12.5
2022-08-10T17:24:00.116Z,12.18
2022-08-10T17:25:01.653Z,12.17
2022-08-10T17:26:03.232Z,11.88
2022-08-10T17:28:12.292Z,12.28
2022-08-10T17:30:29.044Z,12.92
2022-08-10T17:31:59.452Z,13.38
2022-08-10T17:33:00.983Z,13.5